createdAt,value
2018-05-08T00:00:19.598Z,69.87
2018-05-08T00:03:22.907Z,69.84
2018-05-08T00:06:26.212Z,69.83
2018-05-08T00:09:30.293Z,69.80
2018-05-08T00:12:33.609Z,69.83
2018-05-08T00:15:36.925Z,69.89
2018-05-08T00:18:40.984Z,70.18
2018-05-08T00:21:44.289Z,70.30
2018-05-08T00:24:47.597Z,70.28
2018-05-08T00:27:50.925Z,70.41
2018-05-08T00:30:54.994Z,70.66
2018-05-08T00:33:58.328Z,70.75
2018-05-08T00:37:02.402Z,71.01
2018-05-08T00:40:05.726Z,70.96
2018-05-08T00:43:09.057Z,70.94
2018-05-08T00:46:12.356Z,70.71
2018-05-08T00:49:15.678Z,70.70
2018-05-08T00:52:18.986Z,70.87
2018-05-08T00:55:22.310Z,70.94
2018-05-08T00:58:25.605Z,70.98
2018-05-08T01:01:28.943Z,71.17
2018-05-08T01:04:32.250Z,71.28
2018-05-08T01:07:35.588Z,71.37
2018-05-08T01:10:38.889Z,71.59
2018-05-08T01:13:42.221Z,71.86
2018-05-08T01:16:45.521Z,72.21
2018-05-08T01:19:48.833Z,72.58
2018-05-08T01:22:52.141Z,72.91
2018-05-08T01:25:56.239Z,73.14
2018-05-08T01:28:59.548Z,73.29
2018-05-08T01:32:02.985Z,73.72
2018-05-08T01:35:06.289Z,73.80
2018-05-08T01:38:09.613Z,73.97
2018-05-08T01:41:12.922Z,74.54
2018-05-08T01:44:16.241Z,74.90
2018-05-08T01:47:19.553Z,74.72
2018-05-08T01:50:22.874Z,74.53
2018-05-08T01:53:26.937Z,74.46
2018-05-08T01:56:30.258Z,74.62
2018-05-08T01:59:33.553Z,74.96
2018-05-08T02:02:36.858Z,75.13
2018-05-08T02:05:40.190Z,75.32
2018-05-08T02:08:44.253Z,75.42
2018-05-08T02:11:47.587Z,75.59
2018-05-08T02:14:51.658Z,75.70
2018-05-08T02:17:54.985Z,75.85
2018-05-08T02:20:58.288Z,75.96
2018-05-08T02:24:01.610Z,76.11
2018-05-08T02:27:05.673Z,76.14
2018-05-08T02:30:09.002Z,76.28
2018-05-08T02:33:12.304Z,76.49
2018-05-08T02:36:16.389Z,76.67
2018-05-08T02:39:19.697Z,76.97
2018-05-08T02:42:23.021Z,77.04
2018-05-08T02:45:27.089Z,77.62
2018-05-08T02:48:30.429Z,77.83
2018-05-08T02:51:34.493Z,77.64
2018-05-08T02:54:37.813Z,77.51
2018-05-08T02:57:41.120Z,77.42
2018-05-08T03:00:44.444Z,77.56
2018-05-08T03:03:47.754Z,77.76
2018-05-08T03:06:51.076Z,77.67
2018-05-08T03:09:55.185Z,77.64
2018-05-08T03:12:58.514Z,77.44
2018-05-08T03:16:03.143Z,77.43
2018-05-08T03:19:06.472Z,77.41
2018-05-08T03:22:09.802Z,77.47
2018-05-08T03:25:13.173Z,77.72
2018-05-08T03:28:16.444Z,77.97
2018-05-08T03:31:20.525Z,78.13
2018-05-08T03:34:23.881Z,78.31
2018-05-08T03:37:27.188Z,78.49
2018-05-08T03:40:30.514Z,78.59
2018-05-08T03:43:33.821Z,78.80
2018-05-08T03:46:37.140Z,79.19
2018-05-08T03:49:41.225Z,79.25
2018-05-08T03:52:44.528Z,79.39
2018-05-08T03:55:47.855Z,79.64
2018-05-08T03:58:51.929Z,79.78
2018-05-08T04:02:13.210Z,80.22
2018-05-08T04:05:34.318Z,80.12
2018-05-08T04:08:37.626Z,79.81
2018-05-08T04:11:41.014Z,79.86
2018-05-08T04:14:44.289Z,79.75
2018-05-08T04:17:48.365Z,79.75
2018-05-08T04:20:51.688Z,79.83
2018-05-08T04:23:55.010Z,79.80
2018-05-08T04:26:58.338Z,79.80
2018-05-08T04:30:01.635Z,79.72
2018-05-08T04:33:04.973Z,79.61
2018-05-08T04:36:08.298Z,79.50
2018-05-08T04:39:11.593Z,79.35
2018-05-08T04:42:14.908Z,79.46
2018-05-08T04:45:18.228Z,79.38
2018-05-08T04:48:21.550Z,79.40
2018-05-08T04:51:24.873Z,79.13
2018-05-08T04:54:28.177Z,78.82
2018-05-08T04:57:31.505Z,78.82
2018-05-08T05:00:34.826Z,79.11
2018-05-08T05:03:38.141Z,79.13
2018-05-08T05:06:41.458Z,79.59
2018-05-08T05:09:44.761Z,79.66
2018-05-08T05:12:48.093Z,79.60
2018-05-08T05:15:51.401Z,79.55
2018-05-08T05:18:54.735Z,79.44
2018-05-08T05:21:58.837Z,78.37
2018-05-08T05:25:02.158Z,78.25
2018-05-08T05:28:05.489Z,77.92
2018-05-08T05:31:08.794Z,77.76
2018-05-08T05:34:12.116Z,77.69
2018-05-08T05:37:15.425Z,77.04
2018-05-08T05:40:18.745Z,76.55
2018-05-08T05:43:22.085Z,76.00
2018-05-08T05:46:25.393Z,74.97
2018-05-08T05:49:28.709Z,74.59
2018-05-08T05:52:32.025Z,74.09
2018-05-08T05:55:36.104Z,73.53
2018-05-08T05:58:39.429Z,73.53
2018-05-08T06:01:42.734Z,72.60
2018-05-08T06:04:46.822Z,72.49
2018-05-08T06:07:50.146Z,71.38
2018-05-08T06:10:53.457Z,71.20
2018-05-08T06:13:56.806Z,70.77
2018-05-08T06:17:00.109Z,71.55
2018-05-08T06:20:03.437Z,70.94
2018-05-08T06:23:06.759Z,69.92
2018-05-08T06:26:10.069Z,68.73
2018-05-08T06:29:13.392Z,69.83
2018-05-08T06:32:16.694Z,68.27
2018-05-08T06:35:20.012Z,68.15
2018-05-08T06:38:24.077Z,67.74
2018-05-08T06:41:27.398Z,67.91
2018-05-08T06:44:30.754Z,68.12
2018-05-08T06:47:34.053Z,67.82
2018-05-08T06:50:37.373Z,66.53
2018-05-08T06:53:40.680Z,66.56
2018-05-08T06:56:44.013Z,65.63
2018-05-08T06:59:47.325Z,65.22
2018-05-08T07:02:50.651Z,64.49
2018-05-08T07:05:53.970Z,64.05
2018-05-08T07:08:57.300Z,63.01
2018-05-08T07:12:00.597Z,63.22
2018-05-08T07:15:03.921Z,63.13
2018-05-08T07:18:07.233Z,62.67
2018-05-08T07:21:10.561Z,62.34
2018-05-08T07:24:13.888Z,61.76
2018-05-08T07:27:17.198Z,61.25
2018-05-08T07:30:20.513Z,61.68
2018-05-08T07:33:23.817Z,60.62
2018-05-08T07:36:27.147Z,58.61
2018-05-08T07:39:31.220Z,58.25
2018-05-08T07:42:34.537Z,57.87
2018-05-08T07:45:37.857Z,58.37
2018-05-08T07:48:41.160Z,57.58
2018-05-08T07:51:45.268Z,56.89
2018-05-08T07:54:48.585Z,55.70
2018-05-08T07:57:51.909Z,57.11
2018-05-08T08:00:56.005Z,55.72
2018-05-08T08:03:59.309Z,55.98
2018-05-08T08:07:02.620Z,55.29
2018-05-08T08:10:05.937Z,55.35
2018-05-08T08:13:09.241Z,53.99
2018-05-08T08:16:12.561Z,53.69
2018-05-08T08:19:16.715Z,53.65
2018-05-08T08:22:20.038Z,54.22
2018-05-08T08:25:23.345Z,52.90
2018-05-08T08:28:26.668Z,53.02
2018-05-08T08:31:30.742Z,51.64
2018-05-08T08:34:34.070Z,50.81
2018-05-08T08:37:37.373Z,50.89
2018-05-08T08:40:41.467Z,50.86
2018-05-08T08:43:44.781Z,50.41
2018-05-08T08:46:48.862Z,51.32
2018-05-08T08:49:52.169Z,47.79
2018-05-08T08:52:55.488Z,47.82
2018-05-08T08:55:59.650Z,46.97
2018-05-08T08:59:02.900Z,46.71
2018-05-08T09:02:06.990Z,47.90
2018-05-08T09:05:10.294Z,47.13
2018-05-08T09:08:13.610Z,47.93
2018-05-08T09:11:17.701Z,47.93
2018-05-08T09:14:21.005Z,45.21
2018-05-08T09:17:24.304Z,44.72
2018-05-08T09:20:27.620Z,42.68
2018-05-08T09:23:31.685Z,43.45
2018-05-08T09:26:35.006Z,43.78
2018-05-08T09:29:38.354Z,44.59
2018-05-08T09:32:42.421Z,43.29
2018-05-08T09:35:45.737Z,43.72
2018-05-08T09:38:49.822Z,43.64
2018-05-08T09:41:53.170Z,43.68
2018-05-08T09:44:56.469Z,43.42
2018-05-08T09:47:59.788Z,43.22
2018-05-08T09:51:03.106Z,43.33
2018-05-08T09:54:06.532Z,41.91
2018-05-08T09:57:09.749Z,42.95
2018-05-08T10:00:13.065Z,42.47
2018-05-08T10:03:16.385Z,44.57
2018-05-08T10:06:19.689Z,44.87
2018-05-08T10:09:23.031Z,43.66
2018-05-08T10:12:26.342Z,44.44
2018-05-08T10:15:29.682Z,44.59
2018-05-08T10:18:32.994Z,45.14
2018-05-08T10:21:36.317Z,43.68
2018-05-08T10:24:39.620Z,43.57
2018-05-08T10:27:42.938Z,42.10
2018-05-08T10:30:46.241Z,42.89
2018-05-08T10:33:49.569Z,44.71
2018-05-08T10:36:52.872Z,42.10
2018-05-08T10:39:56.214Z,42.83
2018-05-08T10:42:59.516Z,42.08
2018-05-08T10:46:02.845Z,42.11
2018-05-08T10:49:06.154Z,41.02
2018-05-08T10:52:09.484Z,43.02
2018-05-08T10:55:12.797Z,42.59
2018-05-08T10:58:16.125Z,41.22
2018-05-08T11:01:19.426Z,43.71
2018-05-08T11:04:22.747Z,40.67
2018-05-08T11:07:26.826Z,41.61
2018-05-08T11:10:30.151Z,42.73
2018-05-08T11:13:33.455Z,41.88
2018-05-08T11:16:37.550Z,42.30
2018-05-08T11:19:40.878Z,43.07
2018-05-08T11:22:44.181Z,41.91
2018-05-08T11:25:47.486Z,42.44
2018-05-08T11:28:50.805Z,42.12
2018-05-08T11:31:54.104Z,44.21
2018-05-08T11:34:57.417Z,42.54
2018-05-08T11:38:00.713Z,42.12
2018-05-08T11:41:04.037Z,41.81
2018-05-08T11:44:07.354Z,41.40
2018-05-08T11:47:11.437Z,42.46
2018-05-08T11:50:14.762Z,41.99
2018-05-08T11:53:18.065Z,43.56
2018-05-08T11:56:21.402Z,42.73
2018-05-08T11:59:24.710Z,42.06
2018-05-08T12:02:28.030Z,41.76
2018-05-08T12:05:31.356Z,42.02
2018-05-08T12:08:34.661Z,41.69
2018-05-08T12:11:37.985Z,41.62
2018-05-08T12:14:41.325Z,40.99
2018-05-08T12:17:44.626Z,39.99
2018-05-08T12:20:48.696Z,41.68
2018-05-08T12:23:52.041Z,41.62
2018-05-08T12:26:56.105Z,40.99
2018-05-08T12:29:59.427Z,41.79
2018-05-08T12:33:02.748Z,42.39
2018-05-08T12:36:06.815Z,41.32
2018-05-08T12:39:10.159Z,42.05
2018-05-08T12:42:14.299Z,42.06
2018-05-08T12:45:17.576Z,41.66
2018-05-08T12:48:21.645Z,41.57
2018-05-08T12:51:24.962Z,40.62
2018-05-08T12:54:28.269Z,41.75
2018-05-08T12:57:32.349Z,40.47
2018-05-08T13:00:35.650Z,41.46
2018-05-08T13:03:38.974Z,40.05
2018-05-08T13:06:43.073Z,41.66
2018-05-08T13:09:46.378Z,40.17
2018-05-08T13:12:49.700Z,39.52
2018-05-08T13:15:53.009Z,40.72
2018-05-08T13:18:56.322Z,40.48
2018-05-08T13:21:59.644Z,40.10
2018-05-08T13:25:02.960Z,40.89
2018-05-08T13:28:06.274Z,40.91
2018-05-08T13:31:10.388Z,40.77
2018-05-08T13:34:14.449Z,40.07
2018-05-08T13:37:17.761Z,41.11
2018-05-08T13:40:21.078Z,40.34
2018-05-08T13:43:24.404Z,40.64
2018-05-08T13:46:27.725Z,41.22
2018-05-08T13:49:31.026Z,41.42
2018-05-08T13:52:34.349Z,40.30
2018-05-08T13:55:37.658Z,40.55
2018-05-08T13:58:40.978Z,40.92
2018-05-08T14:01:45.054Z,40.91
2018-05-08T14:04:48.389Z,39.86
2018-05-08T14:07:52.477Z,40.66
2018-05-08T14:10:55.786Z,41.45
2018-05-08T14:13:59.874Z,39.46
2018-05-08T14:17:03.189Z,40.60
2018-05-08T14:20:07.298Z,39.94
2018-05-08T14:23:10.601Z,40.73
2018-05-08T14:26:13.922Z,40.90
2018-05-08T14:29:17.985Z,40.16
2018-05-08T14:32:21.313Z,40.62
2018-05-08T14:35:24.618Z,40.69
2018-05-08T14:38:28.715Z,40.42
2018-05-08T14:41:32.033Z,40.27
2018-05-08T14:44:36.114Z,40.25
2018-05-08T14:47:39.441Z,39.98
2018-05-08T14:50:43.510Z,39.51
2018-05-08T14:53:46.834Z,39.83
2018-05-08T14:56:50.145Z,39.46
2018-05-08T14:59:54.234Z,38.98
2018-05-08T15:02:57.571Z,39.61
2018-05-08T15:06:00.879Z,39.16
2018-05-08T15:09:04.225Z,39.87
2018-05-08T15:12:07.530Z,39.28
2018-05-08T15:15:10.877Z,38.83
2018-05-08T15:18:14.182Z,39.28
2018-05-08T15:21:17.508Z,39.27
2018-05-08T15:24:20.821Z,38.22
2018-05-08T15:27:24.152Z,38.02
2018-05-08T15:30:27.462Z,37.83
2018-05-08T15:33:30.781Z,36.54
2018-05-08T15:36:34.106Z,36.38
2018-05-08T15:39:37.424Z,36.60
2018-05-08T15:42:43.323Z,36.74
2018-05-08T15:45:46.646Z,37.11
2018-05-08T15:48:49.966Z,37.69
2018-05-08T15:51:54.049Z,37.70
2018-05-08T15:54:57.350Z,37.70
2018-05-08T15:58:00.694Z,38.44
2018-05-08T16:01:03.993Z,38.51
2018-05-08T16:04:07.316Z,39.24
2018-05-08T16:07:10.613Z,39.72
2018-05-08T16:10:13.950Z,40.68
2018-05-08T16:13:17.249Z,41.79
2018-05-08T16:16:20.570Z,42.30
2018-05-08T16:19:23.873Z,42.89
2018-05-08T16:22:27.206Z,43.79
2018-05-08T16:25:30.517Z,43.94
2018-05-08T16:28:33.845Z,44.03
2018-05-08T16:31:37.950Z,44.56
2018-05-08T16:34:42.014Z,44.94
2018-05-08T16:37:45.338Z,45.60
2018-05-08T16:40:48.637Z,45.67
2018-05-08T16:43:51.962Z,45.65
2018-05-08T16:46:56.037Z,46.06
2018-05-08T16:49:59.361Z,46.46
2018-05-08T16:53:02.679Z,46.75
2018-05-08T16:56:06.013Z,47.38
2018-05-08T16:59:10.178Z,48.17
2018-05-08T17:02:14.266Z,48.45
2018-05-08T17:05:17.609Z,49.53
2018-05-08T17:08:20.905Z,49.88
2018-05-08T17:11:24.226Z,50.85
2018-05-08T17:14:27.551Z,51.28
2018-05-08T17:17:30.873Z,51.28
2018-05-08T17:20:34.190Z,51.81
2018-05-08T17:23:37.489Z,52.40
2018-05-08T17:26:40.805Z,52.73
2018-05-08T17:29:44.134Z,53.13
2018-05-08T17:32:47.450Z,53.32
2018-05-08T17:35:50.746Z,53.66
2018-05-08T17:38:54.057Z,54.02
2018-05-08T17:41:58.124Z,54.23
2018-05-08T17:45:01.465Z,54.98
2018-05-08T17:48:04.777Z,54.81
2018-05-08T17:51:08.092Z,55.23
2018-05-08T17:54:11.398Z,55.42
2018-05-08T17:57:14.719Z,55.94
2018-05-08T18:00:18.033Z,56.14
2018-05-08T18:03:21.353Z,56.32
2018-05-08T18:06:25.417Z,56.52
2018-05-08T18:09:28.745Z,56.97
2018-05-08T18:12:32.049Z,56.98
2018-05-08T18:15:36.143Z,57.29
2018-05-08T18:18:39.437Z,57.37
2018-05-08T18:21:42.762Z,57.44
2018-05-08T18:24:46.829Z,57.84
2018-05-08T18:27:50.145Z,57.88
2018-05-08T18:30:53.482Z,58.25
2018-05-08T18:33:56.785Z,58.39
2018-05-08T18:37:00.105Z,58.56
2018-05-08T18:40:03.410Z,59.09
2018-05-08T18:43:06.737Z,58.94
2018-05-08T18:46:10.038Z,59.31
2018-05-08T18:49:14.220Z,59.31
2018-05-08T18:52:17.484Z,59.53
2018-05-08T18:55:20.794Z,59.65
2018-05-08T18:58:24.113Z,59.85
2018-05-08T19:01:27.421Z,59.74
2018-05-08T19:04:30.737Z,60.14
2018-05-08T19:07:34.038Z,60.24
2018-05-08T19:10:38.122Z,60.19
2018-05-08T19:13:41.421Z,60.53
2018-05-08T19:16:44.738Z,60.68
2018-05-08T19:19:53.607Z,60.64
2018-05-08T19:22:56.929Z,60.84
2018-05-08T19:26:00.251Z,60.85
2018-05-08T19:29:09.091Z,60.95
2018-05-08T19:32:13.179Z,60.96
2018-05-08T19:35:21.805Z,60.77
2018-05-08T19:38:25.109Z,60.97
2018-05-08T19:41:28.426Z,61.04
2018-05-08T19:44:32.513Z,61.20
2018-05-08T19:47:35.815Z,61.03
2018-05-08T19:50:39.137Z,61.49
2018-05-08T19:53:43.204Z,61.35
2018-05-08T19:56:46.526Z,61.19
2018-05-08T19:59:49.862Z,61.39
2018-05-08T20:02:53.173Z,61.40
2018-05-08T20:05:56.502Z,61.26
2018-05-08T20:08:59.821Z,61.86
2018-05-08T20:12:03.121Z,61.83
2018-05-08T20:15:07.223Z,61.86
2018-05-08T20:18:10.525Z,61.92
2018-05-08T20:21:13.857Z,61.86
2018-05-08T20:24:17.164Z,62.26
2018-05-08T20:27:20.490Z,62.25
2018-05-08T20:30:23.787Z,62.29
2018-05-08T20:33:27.174Z,62.39
2018-05-08T20:36:30.477Z,62.43
2018-05-08T20:39:33.834Z,62.53
2018-05-08T20:42:37.140Z,62.13
2018-05-08T20:45:40.462Z,62.07
2018-05-08T20:48:43.790Z,62.02
2018-05-08T20:51:47.109Z,61.89
2018-05-08T20:54:51.201Z,62.15
2018-05-08T20:57:54.510Z,62.11
2018-05-08T21:00:58.623Z,62.08
2018-05-08T21:04:01.901Z,62.27
2018-05-08T21:07:05.222Z,62.04
2018-05-08T21:10:08.537Z,62.13
2018-05-08T21:13:11.837Z,62.20
2018-05-08T21:16:15.152Z,62.33
2018-05-08T21:19:18.472Z,62.45
2018-05-08T21:22:21.782Z,62.70
2018-05-08T21:25:25.101Z,62.77
2018-05-08T21:28:34.733Z,62.95
2018-05-08T21:31:38.061Z,63.06
2018-05-08T21:34:41.368Z,63.25
2018-05-08T21:37:44.691Z,63.52
2018-05-08T21:40:48.004Z,63.60
2018-05-08T21:43:51.333Z,63.81
2018-05-08T21:46:55.424Z,63.90
2018-05-08T21:49:58.727Z,64.04
2018-05-08T21:53:02.841Z,64.15
2018-05-08T21:56:06.142Z,64.18
2018-05-08T21:59:10.225Z,64.34
2018-05-08T22:02:13.542Z,64.30
2018-05-08T22:05:16.860Z,64.52
2018-05-08T22:08:20.941Z,64.71
2018-05-08T22:11:24.254Z,64.74
2018-05-08T22:14:27.555Z,64.90
2018-05-08T22:17:31.637Z,64.98
2018-05-08T22:20:34.961Z,65.21
2018-05-08T22:23:38.257Z,65.32
2018-05-08T22:26:41.576Z,65.40
2018-05-08T22:29:45.653Z,65.77
2018-05-08T22:32:48.958Z,65.82
2018-05-08T22:35:52.277Z,66.11
2018-05-08T22:38:56.344Z,66.16
2018-05-08T22:41:59.661Z,66.19
2018-05-08T22:45:02.965Z,66.37
2018-05-08T22:48:07.077Z,66.57
2018-05-08T22:51:10.384Z,66.77
2018-05-08T22:54:14.469Z,66.76
2018-05-08T22:57:17.772Z,66.80
2018-05-08T23:00:21.790Z,66.97
2018-05-08T23:03:25.112Z,67.03
2018-05-08T23:06:29.179Z,67.20
2018-05-08T23:09:32.517Z,67.19
2018-05-08T23:12:36.585Z,67.36
2018-05-08T23:15:39.904Z,67.48
2018-05-08T23:18:43.226Z,67.51
2018-05-08T23:21:47.299Z,67.60
2018-05-08T23:24:50.609Z,67.84
2018-05-08T23:27:53.927Z,68.19
2018-05-08T23:30:57.245Z,68.18
2018-05-08T23:34:01.334Z,68.30
2018-05-08T23:37:04.638Z,68.63
2018-05-08T23:40:08.736Z,68.87
2018-05-08T23:43:12.041Z,68.87
2018-05-08T23:46:15.353Z,69.00
2018-05-08T23:49:19.438Z,68.99
2018-05-08T23:52:22.757Z,69.23
2018-05-08T23:55:26.056Z,69.33
2018-05-08T23:58:30.133Z,69.47
